リヴァプール の空港の天気 - METARとTAF

リバプール・ジョン・レノン空港 ( EGGP / LPL ) - イギリス リヴァプール
飛行場実況気象(Metar)
観測時間02/05 19:20 GMT (02/05 19:20 UTC)
風向・風速東南東 2m/s
視程10km以上
天気現象
なし
気温3℃
湿度81%
気圧1045hPa
METAREGGP 051920Z 12004KT CAVOK 03/00 Q1045
過去の天気等 Google飛行場航空写真 Wunderground天気予報

過去48時間のMETAR

飛行場予報(TAF)
発表時間: 2/05 16:55 GMT (2/05 16:55 UTC)
予報対象時間: 5日18時 GMT ~ 6日18時 GMT
風向・風速南南東 3m/s
視程10km以上
なし
TAF EGGP 051655Z 0518/0618 15006KT CAVOK